Dixboro, Michigan
Current Conditions -  °F | °C
As of 8:02 AM on Saturday 25 Oct 2014 (Local Time) from KARB Reporting Station
Haze Haze  
Wind Chill: 44°   Ceiling: 3800
Heat Index: 47°   Visibility: 3mi
Dew Point: 45°   Wind: 6mph
Humidity: 93%   Direction: 240°WSW
Pressure: 29.86"   Gusts: NA
Location:  42.3281°N, 83.7037°W
Report Text: KARB 251202Z 24005KT 3SM BR BKN038 OVC047 08/07 A2986 RMK AO2 T00830072
Loading
Personal Weather Stations






























Interactive Weather Map
Tropical Storm Tracking
New forecast layout! Learn more

10-Day Weather Forecast

Advertisements
Track Severe Weather on mobile